sensor_id;sensor_type;location;lat;lon;timestamp;pressure;altitude;pressure_sealevel;temperature;humidity
56558;BME280;43358;50.356;12.456;2023-03-04T00:10:52;95819;;;-3.9;92.4
56558;BME280;43358;50.356;12.456;2023-03-04T00:11:52;95826;;;-3.9;92.5
56558;BME280;43358;50.356;12.456;2023-03-04T00:12:52;95829;;;-3.9;92.6
56558;BME280;43358;50.356;12.456;2023-03-04T00:13:52;95825;;;-3.9;92.7
56558;BME280;43358;50.356;12.456;2023-03-04T00:21:26;95827;;;-3.9;93.8
56558;BME280;43358;50.356;12.456;2023-03-04T00:22:26;95828;;;-3.9;93.6
56558;BME280;43358;50.356;12.456;2023-03-04T00:23:39;95830;;;-3.9;93.6
56558;BME280;43358;50.356;12.456;2023-03-04T00:25:49;95827;;;-3.9;94
56558;BME280;43358;50.356;12.456;2023-03-04T00:26:24;95825;;;-3.8;94.2
56558;BME280;43358;50.356;12.456;2023-03-04T00:27:24;95826;;;-3.7;93.9
56558;BME280;43358;50.356;12.456;2023-03-04T00:29:24;95826;;;-3.6;93.5
56558;BME280;43358;50.356;12.456;2023-03-04T00:30:24;95830;;;-3.6;93.3
56558;BME280;43358;50.356;12.456;2023-03-04T00:31:24;95832;;;-3.6;93.6
56558;BME280;43358;50.356;12.456;2023-03-04T00:38:24;95835;;;-3.6;94.5
56558;BME280;43358;50.356;12.456;2023-03-04T00:39:40;95833;;;-3.5;94.7
56558;BME280;43358;50.356;12.456;2023-03-04T00:40:29;95827;;;-3.5;94.8
56558;BME280;43358;50.356;12.456;2023-03-04T00:41:31;95826;;;-3.5;94.7
56558;BME280;43358;50.356;12.456;2023-03-04T00:43:24;95827;;;-3.5;95.5
56558;BME280;43358;50.356;12.456;2023-03-04T00:44:24;95828;;;-3.5;95.3
56558;BME280;43358;50.356;12.456;2023-03-04T00:45:24;95831;;;-3.4;95.2
56558;BME280;43358;50.356;12.456;2023-03-04T00:46:24;95834;;;-3.5;95.3
56558;BME280;43358;50.356;12.456;2023-03-04T00:48:24;95830;;;-3.5;95.6
56558;BME280;43358;50.356;12.456;2023-03-04T00:50:56;95826;;;-3.4;95.8
56558;BME280;43358;50.356;12.456;2023-03-04T00:51:24;95833;;;-3.4;95.9
56558;BME280;43358;50.356;12.456;2023-03-04T00:52:24;95829;;;-3.4;96.1
56558;BME280;43358;50.356;12.456;2023-03-04T00:53:24;95831;;;-3.4;96.3
56558;BME280;43358;50.356;12.456;2023-03-04T00:54:24;95830;;;-3.4;96.3
56558;BME280;43358;50.356;12.456;2023-03-04T00:55:24;95828;;;-3.3;96.2
56558;BME280;43358;50.356;12.456;2023-03-04T01:08:19;95829;;;-3.1;96.9
56558;BME280;43358;50.356;12.456;2023-03-04T01:09:24;95810;;;-3.1;96.8
56558;BME280;43358;50.356;12.456;2023-03-04T01:11:36;95805;;;-3;96.9
56558;BME280;43358;50.356;12.456;2023-03-04T01:13:17;95807;;;-3;96.6
56558;BME280;43358;50.356;12.456;2023-03-04T01:13:35;95805;;;-3;96.4
56558;BME280;43358;50.356;12.456;2023-03-04T01:14:37;95804;;;-3;96.4
56558;BME280;43358;50.356;12.456;2023-03-04T01:15:39;95798;;;-3;96.5
56558;BME280;43358;50.356;12.456;2023-03-04T01:16:41;95797;;;-2.9;96.7
56558;BME280;43358;50.356;12.456;2023-03-04T01:17:43;95795;;;-2.9;96.6
56558;BME280;43358;50.356;12.456;2023-03-04T01:18:45;95793;;;-3;96.7
56558;BME280;43358;50.356;12.456;2023-03-04T01:19:47;95790;;;-3;96.8
56558;BME280;43358;50.356;12.456;2023-03-04T01:20:49;95787;;;-3;96.9
56558;BME280;43358;50.356;12.456;2023-03-04T01:21:51;95787;;;-3;97
56558;BME280;43358;50.356;12.456;2023-03-04T01:22:53;95786;;;-3;97
56558;BME280;43358;50.356;12.456;2023-03-04T01:23:55;95786;;;-3;97
56558;BME280;43358;50.356;12.456;2023-03-04T01:24:57;95786;;;-3;97
56558;BME280;43358;50.356;12.456;2023-03-04T01:26:00;95786;;;-3;97.1
56558;BME280;43358;50.356;12.456;2023-03-04T01:27:02;95784;;;-2.9;97.3
56558;BME280;43358;50.356;12.456;2023-03-04T01:28:04;95785;;;-2.9;97
56558;BME280;43358;50.356;12.456;2023-03-04T01:29:06;95787;;;-2.8;96.9
56558;BME280;43358;50.356;12.456;2023-03-04T01:30:08;95786;;;-2.8;96.7
56558;BME280;43358;50.356;12.456;2023-03-04T01:31:10;95783;;;-2.8;96.5
56558;BME280;43358;50.356;12.456;2023-03-04T01:36:21;95770;;;-2.8;96.8
56558;BME280;43358;50.356;12.456;2023-03-04T01:37:26;95771;;;-2.8;96.8
56558;BME280;43358;50.356;12.456;2023-03-04T01:39:39;95766;;;-2.8;96.8
56558;BME280;43358;50.356;12.456;2023-03-04T01:43:20;95764;;;-2.7;97.2
56558;BME280;43358;50.356;12.456;2023-03-04T01:44:17;95761;;;-2.7;97
56558;BME280;43358;50.356;12.456;2023-03-04T01:45:18;95761;;;-2.7;96.7
56558;BME280;43358;50.356;12.456;2023-03-04T01:46:13;95758;;;-2.6;96.8
56558;BME280;43358;50.356;12.456;2023-03-04T01:47:13;95760;;;-2.6;96.8
56558;BME280;43358;50.356;12.456;2023-03-04T01:48:13;95762;;;-2.6;96.8
56558;BME280;43358;50.356;12.456;2023-03-04T01:54:34;95751;;;-2.6;97
56558;BME280;43358;50.356;12.456;2023-03-04T01:55:15;95748;;;-2.6;96.8
56558;BME280;43358;50.356;12.456;2023-03-04T01:56:15;95748;;;-2.6;96.7
56558;BME280;43358;50.356;12.456;2023-03-04T01:57:14;95747;;;-2.6;96.6
56558;BME280;43358;50.356;12.456;2023-03-04T01:58:13;95744;;;-2.6;96.6
56558;BME280;43358;50.356;12.456;2023-03-04T02:01:13;95738;;;-2.6;96.9
56558;BME280;43358;50.356;12.456;2023-03-04T02:02:13;95742;;;-2.5;96.9
56558;BME280;43358;50.356;12.456;2023-03-04T02:03:14;95741;;;-2.5;96.8
56558;BME280;43358;50.356;12.456;2023-03-04T02:04:13;95740;;;-2.6;96.6
56558;BME280;43358;50.356;12.456;2023-03-04T02:05:22;95738;;;-2.6;96.6
56558;BME280;43358;50.356;12.456;2023-03-04T02:10:17;95737;;;-2.4;96.6
56558;BME280;43358;50.356;12.456;2023-03-04T02:11:13;95737;;;-2.4;96.4
56558;BME280;43358;50.356;12.456;2023-03-04T02:14:23;95736;;;-2.5;96.5
56558;BME280;43358;50.356;12.456;2023-03-04T02:24:37;95736;;;-2.5;96.3
56558;BME280;43358;50.356;12.456;2023-03-04T02:25:38;95736;;;-2.5;96.3
56558;BME280;43358;50.356;12.456;2023-03-04T02:26:40;95736;;;-2.5;96.4
56558;BME280;43358;50.356;12.456;2023-03-04T02:36:28;95726;;;-2.5;96.7
56558;BME280;43358;50.356;12.456;2023-03-04T02:37:13;95731;;;-2.6;97.3
56558;BME280;43358;50.356;12.456;2023-03-04T02:39:27;95723;;;-2.6;97.4
56558;BME280;43358;50.356;12.456;2023-03-04T02:40:44;95721;;;-2.6;97.2
56558;BME280;43358;50.356;12.456;2023-03-04T02:42:50;95720;;;-2.6;97.3
56558;BME280;43358;50.356;12.456;2023-03-04T02:43:52;95717;;;-2.6;97.5
56558;BME280;43358;50.356;12.456;2023-03-04T02:45:04;95716;;;-2.6;97.6
56558;BME280;43358;50.356;12.456;2023-03-04T03:38:13;95715;;;-2.4;96.8
56558;BME280;43358;50.356;12.456;2023-03-04T03:38:14;95704;;;-2.4;96.7
56558;BME280;43358;50.356;12.456;2023-03-04T03:39:22;95704;;;-2.3;98.5
56558;BME280;43358;50.356;12.456;2023-03-04T03:40:37;95703;;;-2.3;98.7
56558;BME280;43358;50.356;12.456;2023-03-04T03:41:22;95702;;;-2.3;98.8
56558;BME280;43358;50.356;12.456;2023-03-04T03:42:22;95703;;;-2.3;98.7
56558;BME280;43358;50.356;12.456;2023-03-04T03:44:22;95699;;;-2.3;98.5
56558;BME280;43358;50.356;12.456;2023-03-04T03:45:22;95700;;;-2.3;98.6
56558;BME280;43358;50.356;12.456;2023-03-04T04:30:48;95677;;;-2;97.9
56558;BME280;43358;50.356;12.456;2023-03-04T04:32:53;95680;;;-1.9;97.6
56558;BME280;43358;50.356;12.456;2023-03-04T04:33:56;95680;;;-1.9;97.6
56558;BME280;43358;50.356;12.456;2023-03-04T04:35:00;95678;;;-1.9;97.6
56558;BME280;43358;50.356;12.456;2023-03-04T04:36:02;95677;;;-1.9;97.5
56558;BME280;43358;50.356;12.456;2023-03-04T04:37:04;95675;;;-1.9;97.3
56558;BME280;43358;50.356;12.456;2023-03-04T04:40:20;95677;;;-1.8;97.2
56558;BME280;43358;50.356;12.456;2023-03-04T04:41:28;95676;;;-1.8;97.2
56558;BME280;43358;50.356;12.456;2023-03-04T04:43:32;95677;;;-1.8;97
56558;BME280;43358;50.356;12.456;2023-03-04T04:54:18;95684;;;-1.8;97.2
56558;BME280;43358;50.356;12.456;2023-03-04T04:54:19;95683;;;-1.8;97.1
56558;BME280;43358;50.356;12.456;2023-03-04T04:54:56;95675;;;-1.7;97.3
56558;BME280;43358;50.356;12.456;2023-03-04T04:56:19;95681;;;-1.7;97
56558;BME280;43358;50.356;12.456;2023-03-04T05:11:36;95681;;;-1.7;96.9
56558;BME280;43358;50.356;12.456;2023-03-04T05:11:38;95688;;;-1.7;97.2
56558;BME280;43358;50.356;12.456;2023-03-04T05:12:40;95691;;;-1.6;96.7
56558;BME280;43358;50.356;12.456;2023-03-04T05:13:42;95688;;;-1.6;96.7
56558;BME280;43358;50.356;12.456;2023-03-04T05:14:44;95691;;;-1.5;96.6
56558;BME280;43358;50.356;12.456;2023-03-04T05:15:46;95694;;;-1.5;96.3
56558;BME280;43358;50.356;12.456;2023-03-04T05:34:26;95702;;;-1.4;95.8
56558;BME280;43358;50.356;12.456;2023-03-04T05:34:43;95695;;;-1.4;95.7
56558;BME280;43358;50.356;12.456;2023-03-04T05:35:44;95702;;;-1.4;95.8
56558;BME280;43358;50.356;12.456;2023-03-04T05:36:46;95694;;;-1.4;95.7
56558;BME280;43358;50.356;12.456;2023-03-04T05:37:47;95697;;;-1.4;95.7
56558;BME280;43358;50.356;12.456;2023-03-04T05:38:49;95699;;;-1.3;95.6
56558;BME280;43358;50.356;12.456;2023-03-04T05:39:51;95694;;;-1.3;95.2
56558;BME280;43358;50.356;12.456;2023-03-04T05:41:55;95693;;;-1.3;95.3
56558;BME280;43358;50.356;12.456;2023-03-04T05:42:58;95695;;;-1.3;95.3
56558;BME280;43358;50.356;12.456;2023-03-04T05:44:00;95693;;;-1.3;95.2
56558;BME280;43358;50.356;12.456;2023-03-04T05:46:53;95694;;;-1.3;95
56558;BME280;43358;50.356;12.456;2023-03-04T05:47:40;95685;;;-1.3;95.3
56558;BME280;43358;50.356;12.456;2023-03-04T05:50:56;95692;;;-1.4;95.5
56558;BME280;43358;50.356;12.456;2023-03-04T05:52:52;95688;;;-1.3;95.6
56558;BME280;43358;50.356;12.456;2023-03-04T05:53:54;95691;;;-1.3;95.4
56558;BME280;43358;50.356;12.456;2023-03-04T06:06:10;95687;;;-1.3;95.2
56558;BME280;43358;50.356;12.456;2023-03-04T06:06:43;95692;;;-1.2;95.3
56558;BME280;43358;50.356;12.456;2023-03-04T06:07:44;95692;;;-1.2;95.1
56558;BME280;43358;50.356;12.456;2023-03-04T06:08:46;95693;;;-1.2;95
56558;BME280;43358;50.356;12.456;2023-03-04T06:09:48;95691;;;-1.2;94.9
56558;BME280;43358;50.356;12.456;2023-03-04T06:10:51;95689;;;-1.1;94.9
56558;BME280;43358;50.356;12.456;2023-03-04T06:11:52;95689;;;-1.2;94.9
56558;BME280;43358;50.356;12.456;2023-03-04T06:12:54;95693;;;-1.2;95
56558;BME280;43358;50.356;12.456;2023-03-04T06:13:56;95695;;;-1.2;95.1
56558;BME280;43358;50.356;12.456;2023-03-04T06:14:58;95693;;;-1.2;95.2
56558;BME280;43358;50.356;12.456;2023-03-04T06:16:00;95699;;;-1.2;95.5
56558;BME280;43358;50.356;12.456;2023-03-04T06:17:02;95700;;;-1.1;95.3
56558;BME280;43358;50.356;12.456;2023-03-04T06:18:04;95701;;;-1.1;95.2
56558;BME280;43358;50.356;12.456;2023-03-04T06:19:06;95700;;;-1.1;95
56558;BME280;43358;50.356;12.456;2023-03-04T06:20:09;95691;;;-1.1;95
56558;BME280;43358;50.356;12.456;2023-03-04T06:22:07;95690;;;-1.1;95
56558;BME280;43358;50.356;12.456;2023-03-04T06:25:21;95694;;;-1.1;95.4
56558;BME280;43358;50.356;12.456;2023-03-04T06:26:18;95693;;;-1.1;95.4
56558;BME280;43358;50.356;12.456;2023-03-04T06:27:20;95698;;;-1.1;95.2
56558;BME280;43358;50.356;12.456;2023-03-04T06:28:22;95696;;;-1.1;95.2
56558;BME280;43358;50.356;12.456;2023-03-04T06:29:24;95700;;;-1.1;95.2
56558;BME280;43358;50.356;12.456;2023-03-04T06:30:26;95695;;;-1.1;95
56558;BME280;43358;50.356;12.456;2023-03-04T06:31:28;95701;;;-1.1;95
56558;BME280;43358;50.356;12.456;2023-03-04T06:32:30;95698;;;-1;94.9
56558;BME280;43358;50.356;12.456;2023-03-04T06:34:34;95702;;;-1;95
56558;BME280;43358;50.356;12.456;2023-03-04T06:40:41;95708;;;-1;94.7
56558;BME280;43358;50.356;12.456;2023-03-04T06:41:32;95710;;;-1;94.7
56558;BME280;43358;50.356;12.456;2023-03-04T06:42:36;95713;;;-1;94.9
56558;BME280;43358;50.356;12.456;2023-03-04T06:43:37;95709;;;-1;95.1
56558;BME280;43358;50.356;12.456;2023-03-04T06:44:39;95708;;;-1;94.9
56558;BME280;43358;50.356;12.456;2023-03-04T06:45:41;95706;;;-0.9;94.7
56558;BME280;43358;50.356;12.456;2023-03-04T06:46:44;95707;;;-0.9;94.6
56558;BME280;43358;50.356;12.456;2023-03-04T06:47:51;95707;;;-0.9;94.5
56558;BME280;43358;50.356;12.456;2023-03-04T06:49:00;95711;;;-1;94.5
56558;BME280;43358;50.356;12.456;2023-03-04T06:50:53;95707;;;-1;94.5
56558;BME280;43358;50.356;12.456;2023-03-04T06:51:55;95707;;;-1;94.7
56558;BME280;43358;50.356;12.456;2023-03-04T06:56:14;95705;;;-0.9;94.5
56558;BME280;43358;50.356;12.456;2023-03-04T06:57:16;95704;;;-0.9;94.6
56558;BME280;43358;50.356;12.456;2023-03-04T06:58:18;95708;;;-0.9;94.7
56558;BME280;43358;50.356;12.456;2023-03-04T06:59:20;95711;;;-0.9;94.6
56558;BME280;43358;50.356;12.456;2023-03-04T07:00:23;95708;;;-0.9;94.6
56558;BME280;43358;50.356;12.456;2023-03-04T07:01:25;95715;;;-0.9;94.6
56558;BME280;43358;50.356;12.456;2023-03-04T07:02:26;95712;;;-0.9;94.4
56558;BME280;43358;50.356;12.456;2023-03-04T07:03:28;95708;;;-0.9;94.5
56558;BME280;43358;50.356;12.456;2023-03-04T07:04:30;95709;;;-0.9;94.5
56558;BME280;43358;50.356;12.456;2023-03-04T07:05:32;95712;;;-0.9;94.3
56558;BME280;43358;50.356;12.456;2023-03-04T07:06:34;95714;;;-0.9;94.5
56558;BME280;43358;50.356;12.456;2023-03-04T07:07:36;95718;;;-0.9;94.4
56558;BME280;43358;50.356;12.456;2023-03-04T07:08:38;95714;;;-0.8;94.4
56558;BME280;43358;50.356;12.456;2023-03-04T07:09:40;95710;;;-0.8;94.6
56558;BME280;43358;50.356;12.456;2023-03-04T07:10:43;95715;;;-0.9;94.5
56558;BME280;43358;50.356;12.456;2023-03-04T07:11:45;95709;;;-0.9;94.5
56558;BME280;43358;50.356;12.456;2023-03-04T07:13:25;95713;;;-0.8;94.5
56558;BME280;43358;50.356;12.456;2023-03-04T07:14:25;95717;;;-0.8;94.3
56558;BME280;43358;50.356;12.456;2023-03-04T07:15:25;95720;;;-0.8;94.1
56558;BME280;43358;50.356;12.456;2023-03-04T07:16:25;95720;;;-0.8;94.3
56558;BME280;43358;50.356;12.456;2023-03-04T07:17:25;95715;;;-0.8;94.4
56558;BME280;43358;50.356;12.456;2023-03-04T07:18:25;95713;;;-0.9;94.5
56558;BME280;43358;50.356;12.456;2023-03-04T07:19:26;95719;;;-0.8;94.5
56558;BME280;43358;50.356;12.456;2023-03-04T07:20:25;95714;;;-0.8;94.3
56558;BME280;43358;50.356;12.456;2023-03-04T07:21:25;95722;;;-0.9;94.4
56558;BME280;43358;50.356;12.456;2023-03-04T07:22:25;95713;;;-0.9;94.4
56558;BME280;43358;50.356;12.456;2023-03-04T07:23:25;95717;;;-0.9;94.5
56558;BME280;43358;50.356;12.456;2023-03-04T07:24:25;95726;;;-0.9;95
56558;BME280;43358;50.356;12.456;2023-03-04T07:25:25;95722;;;-0.8;94.8
56558;BME280;43358;50.356;12.456;2023-03-04T07:26:25;95721;;;-0.9;94.4
56558;BME280;43358;50.356;12.456;2023-03-04T07:27:25;95728;;;-0.9;94.2
56558;BME280;43358;50.356;12.456;2023-03-04T07:28:26;95721;;;-0.9;94.3
56558;BME280;43358;50.356;12.456;2023-03-04T07:29:26;95725;;;-0.9;94.3
56558;BME280;43358;50.356;12.456;2023-03-04T07:30:25;95719;;;-0.9;94.5
56558;BME280;43358;50.356;12.456;2023-03-04T07:31:26;95725;;;-0.9;95
56558;BME280;43358;50.356;12.456;2023-03-04T07:32:28;95720;;;-0.9;95.2
56558;BME280;43358;50.356;12.456;2023-03-04T07:33:31;95716;;;-0.9;94.9
56558;BME280;43358;50.356;12.456;2023-03-04T07:35:46;95716;;;-0.8;94.8
56558;BME280;43358;50.356;12.456;2023-03-04T07:39:25;95722;;;-0.8;94.7
56558;BME280;43358;50.356;12.456;2023-03-04T07:40:25;95719;;;-0.8;94.7
56558;BME280;43358;50.356;12.456;2023-03-04T07:41:25;95721;;;-0.8;94.8
56558;BME280;43358;50.356;12.456;2023-03-04T07:42:25;95723;;;-0.8;94.7
56558;BME280;43358;50.356;12.456;2023-03-04T07:43:25;95726;;;-0.8;94.7
56558;BME280;43358;50.356;12.456;2023-03-04T07:44:25;95729;;;-0.8;94.8
56558;BME280;43358;50.356;12.456;2023-03-04T07:45:25;95728;;;-0.7;94.8
56558;BME280;43358;50.356;12.456;2023-03-04T07:46:25;95725;;;-0.7;94.5
56558;BME280;43358;50.356;12.456;2023-03-04T07:47:25;95726;;;-0.7;94.5
56558;BME280;43358;50.356;12.456;2023-03-04T07:48:25;95730;;;-0.7;94.4
56558;BME280;43358;50.356;12.456;2023-03-04T07:49:25;95723;;;-0.7;94.5
56558;BME280;43358;50.356;12.456;2023-03-04T07:50:25;95728;;;-0.7;94.2
56558;BME280;43358;50.356;12.456;2023-03-04T07:51:25;95725;;;-0.8;94.3
56558;BME280;43358;50.356;12.456;2023-03-04T07:52:25;95725;;;-0.8;94.7
56558;BME280;43358;50.356;12.456;2023-03-04T07:53:25;95722;;;-0.8;94.8
56558;BME280;43358;50.356;12.456;2023-03-04T07:55:28;95730;;;-0.7;94.7
56558;BME280;43358;50.356;12.456;2023-03-04T07:56:31;95726;;;-0.7;94.6
56558;BME280;43358;50.356;12.456;2023-03-04T07:58:35;95719;;;-0.7;94.7
56558;BME280;43358;50.356;12.456;2023-03-04T08:00:38;95717;;;-0.7;94.3
56558;BME280;43358;50.356;12.456;2023-03-04T08:01:40;95721;;;-0.7;94.4
56558;BME280;43358;50.356;12.456;2023-03-04T08:02:42;95717;;;-0.6;94.3
56558;BME280;43358;50.356;12.456;2023-03-04T08:03:44;95713;;;-0.6;94.2
56558;BME280;43358;50.356;12.456;2023-03-04T08:04:47;95715;;;-0.6;94.1
56558;BME280;43358;50.356;12.456;2023-03-04T08:05:49;95717;;;-0.6;94
56558;BME280;43358;50.356;12.456;2023-03-04T08:06:51;95716;;;-0.6;94.1
56558;BME280;43358;50.356;12.456;2023-03-04T08:13:23;95724;;;-0.6;94.2
56558;BME280;43358;50.356;12.456;2023-03-04T08:14:22;95721;;;-0.5;94.1
56558;BME280;43358;50.356;12.456;2023-03-04T08:15:25;95722;;;-0.5;93.6
56558;BME280;43358;50.356;12.456;2023-03-04T08:16:27;95722;;;-0.6;93.9
56558;BME280;43358;50.356;12.456;2023-03-04T08:17:29;95720;;;-0.5;94.2
56558;BME280;43358;50.356;12.456;2023-03-04T08:18:31;95717;;;-0.6;94.2
56558;BME280;43358;50.356;12.456;2023-03-04T08:19:35;95714;;;-0.5;94.3
56558;BME280;43358;50.356;12.456;2023-03-04T08:20:35;95717;;;-0.5;94.6
56558;BME280;43358;50.356;12.456;2023-03-04T08:21:37;95721;;;-0.5;94.4
56558;BME280;43358;50.356;12.456;2023-03-04T08:22:39;95721;;;-0.4;94.3
56558;BME280;43358;50.356;12.456;2023-03-04T08:23:45;95723;;;-0.5;94
56558;BME280;43358;50.356;12.456;2023-03-04T08:24:49;95726;;;-0.4;94.1
56558;BME280;43358;50.356;12.456;2023-03-04T08:25:50;95723;;;-0.4;93.9
56558;BME280;43358;50.356;12.456;2023-03-04T08:26:54;95724;;;-0.4;93.7
56558;BME280;43358;50.356;12.456;2023-03-04T08:27:54;95724;;;-0.4;93.7
56558;BME280;43358;50.356;12.456;2023-03-04T08:29:09;95718;;;-0.4;93.8
56558;BME280;43358;50.356;12.456;2023-03-04T08:29:58;95721;;;-0.4;93.8
56558;BME280;43358;50.356;12.456;2023-03-04T08:31:02;95722;;;-0.4;93.7
56558;BME280;43358;50.356;12.456;2023-03-04T08:32:04;95723;;;-0.4;93.9
56558;BME280;43358;50.356;12.456;2023-03-04T08:33:07;95721;;;-0.4;94
56558;BME280;43358;50.356;12.456;2023-03-04T08:34:22;95722;;;-0.4;94.1
56558;BME280;43358;50.356;12.456;2023-03-04T08:35:12;95721;;;-0.3;94
56558;BME280;43358;50.356;12.456;2023-03-04T08:36:13;95722;;;-0.3;93.9
56558;BME280;43358;50.356;12.456;2023-03-04T08:37:19;95717;;;-0.4;93.9
56558;BME280;43358;50.356;12.456;2023-03-04T08:41:25;95721;;;-0.3;94
56558;BME280;43358;50.356;12.456;2023-03-04T08:44:47;95720;;;-0.3;93.5
56558;BME280;43358;50.356;12.456;2023-03-04T08:47:49;95720;;;-0.3;93.8
56558;BME280;43358;50.356;12.456;2023-03-04T08:48:51;95719;;;-0.2;94
56558;BME280;43358;50.356;12.456;2023-03-04T08:49:53;95715;;;-0.2;93.8
56558;BME280;43358;50.356;12.456;2023-03-04T08:50:55;95714;;;-0.2;94
56558;BME280;43358;50.356;12.456;2023-03-04T08:52:02;95717;;;-0.2;94.5
56558;BME280;43358;50.356;12.456;2023-03-04T08:52:58;95720;;;-0.2;94.4
56558;BME280;43358;50.356;12.456;2023-03-04T08:54:00;95715;;;-0.2;94.2
56558;BME280;43358;50.356;12.456;2023-03-04T08:55:02;95718;;;-0.2;93.9
56558;BME280;43358;50.356;12.456;2023-03-04T08:56:06;95725;;;-0.2;93.8
56558;BME280;43358;50.356;12.456;2023-03-04T08:57:06;95723;;;-0.1;93.9
56558;BME280;43358;50.356;12.456;2023-03-04T08:58:08;95719;;;-0.1;94.2
56558;BME280;43358;50.356;12.456;2023-03-04T08:59:11;95720;;;-0.1;94
56558;BME280;43358;50.356;12.456;2023-03-04T09:00:12;95721;;;-0.1;94
56558;BME280;43358;50.356;12.456;2023-03-04T09:01:14;95718;;;-0.1;93.9
56558;BME280;43358;50.356;12.456;2023-03-04T09:02:17;95721;;;-0.1;93.8
56558;BME280;43358;50.356;12.456;2023-03-04T09:03:18;95720;;;-0.1;93.7
56558;BME280;43358;50.356;12.456;2023-03-04T09:05:24;95722;;;-0.2;94.4
56558;BME280;43358;50.356;12.456;2023-03-04T09:06:27;95726;;;-0.1;94.4
56558;BME280;43358;50.356;12.456;2023-03-04T09:07:29;95723;;;-0.1;94.4
56558;BME280;43358;50.356;12.456;2023-03-04T09:08:36;95720;;;-0.1;94.3
56558;BME280;43358;50.356;12.456;2023-03-04T09:09:35;95717;;;-0.1;93.8
56558;BME280;43358;50.356;12.456;2023-03-04T09:11:40;95717;;;0;94
56558;BME280;43358;50.356;12.456;2023-03-04T09:12:25;95719;;;0;94.4
56558;BME280;43358;50.356;12.456;2023-03-04T09:13:31;95723;;;0;94.3
56558;BME280;43358;50.356;12.456;2023-03-04T09:14:25;95725;;;0;94.3
56558;BME280;43358;50.356;12.456;2023-03-04T09:15:25;95722;;;0;94.3
56558;BME280;43358;50.356;12.456;2023-03-04T09:16:26;95717;;;0;94
56558;BME280;43358;50.356;12.456;2023-03-04T09:17:29;95713;;;0;94.2
56558;BME280;43358;50.356;12.456;2023-03-04T09:18:25;95717;;;0;94.3
56558;BME280;43358;50.356;12.456;2023-03-04T09:19:25;95723;;;0;94.5
56558;BME280;43358;50.356;12.456;2023-03-04T09:20:28;95719;;;0;94.2
56558;BME280;43358;50.356;12.456;2023-03-04T09:21:25;95719;;;0;94
56558;BME280;43358;50.356;12.456;2023-03-04T09:22:25;95721;;;0;94.1
56558;BME280;43358;50.356;12.456;2023-03-04T09:23:25;95722;;;0;94.3
56558;BME280;43358;50.356;12.456;2023-03-04T09:24:25;95721;;;0;94.3
56558;BME280;43358;50.356;12.456;2023-03-04T09:25:25;95725;;;0.1;94.8
56558;BME280;43358;50.356;12.456;2023-03-04T09:26:25;95721;;;0.1;95.2
56558;BME280;43358;50.356;12.456;2023-03-04T09:27:26;95724;;;0.1;94.8
56558;BME280;43358;50.356;12.456;2023-03-04T09:28:25;95720;;;0.1;94.8
56558;BME280;43358;50.356;12.456;2023-03-04T09:29:25;95723;;;0.1;94.9
56558;BME280;43358;50.356;12.456;2023-03-04T09:30:25;95722;;;0.1;95.1
56558;BME280;43358;50.356;12.456;2023-03-04T09:31:25;95721;;;0.1;95.2
56558;BME280;43358;50.356;12.456;2023-03-04T09:32:25;95720;;;0.1;94.9
56558;BME280;43358;50.356;12.456;2023-03-04T09:33:25;95716;;;0.1;94.8
56558;BME280;43358;50.356;12.456;2023-03-04T09:34:25;95720;;;0.1;94.7
56558;BME280;43358;50.356;12.456;2023-03-04T09:35:26;95720;;;0.1;95.3
56558;BME280;43358;50.356;12.456;2023-03-04T09:38:25;95716;;;0.2;95.2
56558;BME280;43358;50.356;12.456;2023-03-04T09:39:25;95712;;;0.2;95.1
56558;BME280;43358;50.356;12.456;2023-03-04T09:40:25;95712;;;0.2;95
56558;BME280;43358;50.356;12.456;2023-03-04T09:41:26;95713;;;0.2;94.8
56558;BME280;43358;50.356;12.456;2023-03-04T09:42:26;95713;;;0.2;94.6
56558;BME280;43358;50.356;12.456;2023-03-04T09:43:25;95710;;;0.2;94.8
56558;BME280;43358;50.356;12.456;2023-03-04T09:44:26;95713;;;0.2;94.9
56558;BME280;43358;50.356;12.456;2023-03-04T09:45:26;95714;;;0.2;95
56558;BME280;43358;50.356;12.456;2023-03-04T09:46:26;95712;;;0.3;94.8
56558;BME280;43358;50.356;12.456;2023-03-04T09:47:25;95712;;;0.3;94.7
56558;BME280;43358;50.356;12.456;2023-03-04T09:48:26;95710;;;0.3;94.7
56558;BME280;43358;50.356;12.456;2023-03-04T09:49:25;95709;;;0.3;94.7
56558;BME280;43358;50.356;12.456;2023-03-04T09:50:25;95709;;;0.3;94.9
56558;BME280;43358;50.356;12.456;2023-03-04T09:51:30;95707;;;0.3;95
56558;BME280;43358;50.356;12.456;2023-03-04T09:52:27;95709;;;0.3;95.2
56558;BME280;43358;50.356;12.456;2023-03-04T09:53:27;95710;;;0.3;95
56558;BME280;43358;50.356;12.456;2023-03-04T09:54:30;95708;;;0.4;95
56558;BME280;43358;50.356;12.456;2023-03-04T09:55:27;95709;;;0.4;95
56558;BME280;43358;50.356;12.456;2023-03-04T09:56:25;95708;;;0.4;94.9
56558;BME280;43358;50.356;12.456;2023-03-04T09:57:27;95706;;;0.4;94.7
56558;BME280;43358;50.356;12.456;2023-03-04T09:58:32;95707;;;0.4;94.6
56558;BME280;43358;50.356;12.456;2023-03-04T09:59:31;95704;;;0.4;94.9
56558;BME280;43358;50.356;12.456;2023-03-04T10:00:36;95706;;;0.4;94.9
56558;BME280;43358;50.356;12.456;2023-03-04T10:01:38;95705;;;0.4;95
56558;BME280;43358;50.356;12.456;2023-03-04T10:02:42;95706;;;0.5;95
56558;BME280;43358;50.356;12.456;2023-03-04T10:03:41;95705;;;0.5;95
56558;BME280;43358;50.356;12.456;2023-03-04T10:04:43;95707;;;0.5;94.9
56558;BME280;43358;50.356;12.456;2023-03-04T10:05:48;95706;;;0.5;94.9
56558;BME280;43358;50.356;12.456;2023-03-04T10:06:46;95705;;;0.5;94.9
56558;BME280;43358;50.356;12.456;2023-03-04T10:07:49;95703;;;0.5;94.8
56558;BME280;43358;50.356;12.456;2023-03-04T10:08:51;95706;;;0.5;94.8
56558;BME280;43358;50.356;12.456;2023-03-04T10:09:53;95703;;;0.5;94.8
56558;BME280;43358;50.356;12.456;2023-03-04T10:10:55;95700;;;0.6;94.9
56558;BME280;43358;50.356;12.456;2023-03-04T10:11:58;95701;;;0.6;94.5
56558;BME280;43358;50.356;12.456;2023-03-04T10:12:58;95701;;;0.7;94.4
56558;BME280;43358;50.356;12.456;2023-03-04T10:14:03;95701;;;0.6;94.3
56558;BME280;43358;50.356;12.456;2023-03-04T10:15:04;95700;;;0.6;94.4
56558;BME280;43358;50.356;12.456;2023-03-04T10:16:05;95707;;;0.6;94.7
56558;BME280;43358;50.356;12.456;2023-03-04T10:17:10;95705;;;0.5;94.8
56558;BME280;43358;50.356;12.456;2023-03-04T10:18:11;95705;;;0.6;95.1
56558;BME280;43358;50.356;12.456;2023-03-04T10:19:18;95711;;;0.6;95.1
56558;BME280;43358;50.356;12.456;2023-03-04T10:20:14;95704;;;0.6;95
56558;BME280;43358;50.356;12.456;2023-03-04T10:21:19;95702;;;0.7;95
56558;BME280;43358;50.356;12.456;2023-03-04T10:22:19;95705;;;0.7;94.8